createdAt,value
2022-11-25T00:02:14.894Z,100183.52
2022-11-25T00:04:44.882Z,100181.42
2022-11-25T00:07:14.692Z,100175.41
2022-11-25T00:09:44.613Z,100182.41
2022-11-25T00:12:14.331Z,100185.50
2022-11-25T00:14:44.201Z,100179.27
2022-11-25T00:17:14.366Z,100181.23
2022-11-25T00:19:44.267Z,100180.25
2022-11-25T00:22:14.070Z,100183.84
2022-11-25T00:24:44.047Z,100180.25
2022-11-25T00:27:13.675Z,100180.41
2022-11-25T00:29:43.472Z,100184.39
2022-11-25T00:32:13.075Z,100184.16
2022-11-25T00:34:42.874Z,100187.79
2022-11-25T00:37:12.557Z,100187.79
2022-11-25T00:39:42.388Z,100189.78
2022-11-25T00:42:30.426Z,100189.78
2022-11-25T00:45:00.231Z,100187.32
2022-11-25T00:47:30.037Z,100187.32
2022-11-25T00:50:00.134Z,100185.47
2022-11-25T00:52:29.984Z,100184.06
2022-11-25T00:54:59.793Z,100188.25
2022-11-25T00:57:30.158Z,100184.85
2022-11-25T01:00:00.253Z,100190.02
2022-11-25T01:02:30.095Z,100186.41
2022-11-25T01:04:59.933Z,100192.14
2022-11-25T01:07:29.989Z,100192.42
2022-11-25T01:09:59.991Z,100193.70
2022-11-25T01:12:29.784Z,100195.14
2022-11-25T01:14:59.873Z,100193.77
2022-11-25T01:17:29.657Z,100197.98
2022-11-25T01:19:59.453Z,100196.16
2022-11-25T01:22:29.240Z,100200.80
2022-11-25T01:24:59.066Z,100202.42
2022-11-25T01:27:28.917Z,100202.81
2022-11-25T01:29:58.794Z,100203.99
2022-11-25T01:32:28.586Z,100201.38
2022-11-25T01:34:58.714Z,100202.09
2022-11-25T01:37:28.515Z,100202.02
2022-11-25T01:39:58.304Z,100195.97
2022-11-25T01:42:31.158Z,100198.58
2022-11-25T01:45:27.898Z,100193.86
2022-11-25T01:47:58.058Z,100193.27
2022-11-25T01:50:29.318Z,100191.52
2022-11-25T01:52:59.690Z,100189.48
2022-11-25T01:55:32.607Z,100196.67
2022-11-25T01:58:15.942Z,100195.44
2022-11-25T02:00:50.419Z,100192.48
2022-11-25T02:03:31.889Z,100197.58
2022-11-25T02:06:04.765Z,100196.36
2022-11-25T02:08:34.993Z,100203.49
2022-11-25T02:11:06.336Z,100193.34
2022-11-25T02:13:37.750Z,100200.79
2022-11-25T02:16:08.031Z,100203.48
2022-11-25T02:18:37.918Z,100200.73
2022-11-25T02:21:08.214Z,100203.03
2022-11-25T02:23:43.628Z,100200.52
2022-11-25T02:26:13.385Z,100201.89
2022-11-25T02:28:44.752Z,100203.66
2022-11-25T02:31:16.129Z,100205.42
2022-11-25T02:33:46.011Z,100212.55
2022-11-25T02:36:18.559Z,100209.57
2022-11-25T02:38:56.684Z,100214.34
2022-11-25T02:41:36.104Z,100211.05
2022-11-25T02:44:07.742Z,100217.59
2022-11-25T02:46:37.908Z,100209.54
2022-11-25T02:49:09.656Z,100212.03
2022-11-25T02:51:41.721Z,100211.38
2022-11-25T02:54:12.359Z,100204.97
2022-11-25T02:56:42.509Z,100208.11
2022-11-25T02:59:12.949Z,100211.50
2022-11-25T03:01:42.796Z,100205.88
2022-11-25T03:04:13.005Z,100208.63
2022-11-25T03:06:42.719Z,100206.09
2022-11-25T03:09:12.596Z,100206.09
2022-11-25T03:12:00.452Z,100210.73
2022-11-25T03:14:30.599Z,100214.86
2022-11-25T03:17:00.508Z,100217.67
2022-11-25T03:19:30.942Z,100218.44
2022-11-25T03:22:00.739Z,100213.87
2022-11-25T03:24:30.676Z,100212.75
2022-11-25T03:27:00.540Z,100210.22
2022-11-25T03:29:30.783Z,100213.85
2022-11-25T03:32:02.482Z,100213.22
2022-11-25T03:34:32.212Z,100210.54
2022-11-25T03:37:02.094Z,100221.03
2022-11-25T03:39:32.856Z,100222.23
2022-11-25T03:42:02.663Z,100224.33
2022-11-25T03:44:33.828Z,100223.98
2022-11-25T03:47:03.881Z,100224.92
2022-11-25T03:49:34.818Z,100229.84
2022-11-25T03:52:04.747Z,100220.38
2022-11-25T03:54:35.032Z,100229.91
2022-11-25T03:57:19.004Z,100232.98
2022-11-25T03:59:48.873Z,100231.86
2022-11-25T04:02:19.615Z,100233.63
2022-11-25T04:04:50.097Z,100226.22
2022-11-25T04:07:19.886Z,100237.00
2022-11-25T04:09:50.154Z,100242.70
2022-11-25T04:12:39.689Z,100237.40
2022-11-25T04:15:10.752Z,100233.83
2022-11-25T04:17:41.299Z,100235.92
2022-11-25T04:20:12.439Z,100235.72
2022-11-25T04:22:42.698Z,100239.57
2022-11-25T04:25:13.027Z,100240.61
2022-11-25T04:27:42.985Z,100235.98
2022-11-25T04:30:13.807Z,100238.52
2022-11-25T04:32:44.171Z,100234.29
2022-11-25T04:35:15.187Z,100233.70
2022-11-25T04:37:46.708Z,100238.27
2022-11-25T04:40:16.825Z,100238.27
2022-11-25T04:42:48.700Z,100236.95
2022-11-25T04:45:23.827Z,100236.95
2022-11-25T04:47:51.686Z,100244.67
2022-11-25T04:50:24.053Z,100244.67
2022-11-25T04:52:58.726Z,100238.10
2022-11-25T04:55:29.760Z,100240.83
2022-11-25T04:58:00.702Z,100240.83
2022-11-25T05:00:30.170Z,100244.94
2022-11-25T05:03:00.346Z,100242.44
2022-11-25T05:05:30.633Z,100245.84
2022-11-25T05:08:00.791Z,100244.00
2022-11-25T05:10:30.668Z,100242.90
2022-11-25T05:13:01.056Z,100238.78
2022-11-25T05:15:32.327Z,100243.87
2022-11-25T05:18:02.202Z,100240.08
2022-11-25T05:20:32.847Z,100238.86
2022-11-25T05:23:02.399Z,100241.13
2022-11-25T05:25:32.475Z,100249.23
2022-11-25T05:28:06.899Z,100250.68
2022-11-25T05:30:36.744Z,100253.69
2022-11-25T05:33:07.063Z,100257.48
2022-11-25T05:35:36.881Z,100266.96
2022-11-25T05:38:06.947Z,100266.79
2022-11-25T05:40:38.320Z,100271.42
2022-11-25T05:43:08.865Z,100280.06
2022-11-25T05:45:40.672Z,100276.20
2022-11-25T05:48:11.589Z,100280.42
2022-11-25T05:50:41.518Z,100283.92
2022-11-25T05:53:17.432Z,100280.06
2022-11-25T05:55:56.542Z,100287.45
2022-11-25T05:58:29.483Z,100285.95
2022-11-25T06:01:00.598Z,100285.95
2022-11-25T06:03:31.163Z,100285.89
2022-11-25T06:06:02.251Z,100294.91
2022-11-25T06:08:32.385Z,100290.52
2022-11-25T06:11:08.063Z,100294.89
2022-11-25T06:13:38.297Z,100291.98
2022-11-25T06:16:14.265Z,100291.98
2022-11-25T06:18:46.391Z,100295.90
2022-11-25T06:21:16.580Z,100295.10
2022-11-25T06:23:47.119Z,100294.69
2022-11-25T06:26:21.164Z,100300.89
2022-11-25T06:28:54.683Z,100301.77
2022-11-25T06:31:26.996Z,100305.69
2022-11-25T06:33:58.356Z,100308.44
2022-11-25T06:36:28.518Z,100308.39
2022-11-25T06:38:58.338Z,100308.64
2022-11-25T06:41:28.153Z,100308.64
2022-11-25T06:43:57.993Z,100311.98
2022-11-25T06:46:27.931Z,100312.64
2022-11-25T06:49:02.455Z,100312.64
2022-11-25T06:51:32.420Z,100308.25
2022-11-25T06:54:02.494Z,100309.38
2022-11-25T06:56:32.303Z,100316.69
2022-11-25T06:59:02.752Z,100313.94
2022-11-25T07:01:32.399Z,100322.70
2022-11-25T07:04:05.250Z,100323.48
2022-11-25T07:06:35.102Z,100320.08
2022-11-25T07:09:07.012Z,100323.62
2022-11-25T07:11:40.358Z,100327.02
2022-11-25T07:14:12.950Z,100329.57
2022-11-25T07:16:44.707Z,100332.09
2022-11-25T07:19:17.137Z,100334.44
2022-11-25T07:21:47.523Z,100338.94
2022-11-25T07:24:18.479Z,100336.64
2022-11-25T07:26:48.282Z,100342.13
2022-11-25T07:31:49.721Z,100345.42
2022-11-25T07:34:21.667Z,100346.60
2022-11-25T07:36:52.323Z,100342.50
2022-11-25T07:39:24.351Z,100347.00
2022-11-25T07:41:55.838Z,100348.38
2022-11-25T07:44:25.347Z,100350.42
2022-11-25T07:46:56.862Z,100350.71
2022-11-25T07:49:26.732Z,100345.73
2022-11-25T07:52:04.069Z,100343.19
2022-11-25T07:54:34.175Z,100346.80
2022-11-25T07:57:03.995Z,100342.41
2022-11-25T07:59:34.130Z,100341.92
2022-11-25T08:02:04.127Z,100342.49
2022-11-25T08:04:34.025Z,100342.49
2022-11-25T08:07:04.118Z,100345.69
2022-11-25T08:09:34.414Z,100345.69
2022-11-25T08:12:04.533Z,100350.16
2022-11-25T08:14:35.358Z,100353.09
2022-11-25T08:17:06.336Z,100348.75
2022-11-25T08:19:36.840Z,100348.81
2022-11-25T08:22:06.605Z,100348.97
2022-11-25T08:24:35.987Z,100354.76
2022-11-25T08:27:06.470Z,100356.19
2022-11-25T08:29:36.560Z,100354.87
2022-11-25T08:32:11.749Z,100354.87
2022-11-25T08:34:39.590Z,100363.21
2022-11-25T08:37:10.528Z,100356.11
2022-11-25T08:39:56.287Z,100355.30
2022-11-25T08:42:12.288Z,100363.91
2022-11-25T08:44:41.933Z,100363.17
2022-11-25T08:47:11.751Z,100365.55
2022-11-25T08:49:42.129Z,100360.59
2022-11-25T08:52:12.297Z,100366.08
2022-11-25T08:54:42.334Z,100363.61
2022-11-25T08:57:11.893Z,100364.85
2022-11-25T08:59:42.380Z,100369.20
2022-11-25T09:02:14.455Z,100369.20
2022-11-25T09:04:44.429Z,100368.97
2022-11-25T09:07:14.543Z,100371.02
2022-11-25T09:09:44.244Z,100374.15
2022-11-25T09:12:14.115Z,100375.92
2022-11-25T09:14:43.937Z,100373.30
2022-11-25T09:17:15.556Z,100380.02
2022-11-25T09:19:45.357Z,100380.02
2022-11-25T09:22:15.175Z,100376.13
2022-11-25T09:24:45.438Z,100376.13
2022-11-25T09:27:15.270Z,100372.16
2022-11-25T09:29:45.126Z,100377.58
2022-11-25T09:32:15.072Z,100372.30
2022-11-25T09:34:44.857Z,100373.19
2022-11-25T09:37:14.611Z,100368.95
2022-11-25T09:39:44.417Z,100368.70
2022-11-25T09:43:06.019Z,100365.73
2022-11-25T09:46:02.680Z,100363.23
2022-11-25T09:48:50.794Z,100363.23
2022-11-25T09:51:26.270Z,100363.02
2022-11-25T09:54:10.901Z,100362.69
2022-11-25T09:56:43.501Z,100358.28
2022-11-25T09:59:22.162Z,100367.66
2022-11-25T10:02:12.965Z,100368.11
2022-11-25T10:04:48.330Z,100366.67
2022-11-25T10:07:20.892Z,100367.53
2022-11-25T10:09:50.977Z,100360.66
2022-11-25T10:12:32.257Z,100358.86
2022-11-25T10:15:04.864Z,100358.86
2022-11-25T10:17:40.437Z,100356.02
2022-11-25T10:20:13.297Z,100355.10
2022-11-25T10:22:46.507Z,100355.05
2022-11-25T10:25:27.746Z,100358.19
2022-11-25T10:28:12.919Z,100360.53
2022-11-25T10:31:02.437Z,100358.24
2022-11-25T10:33:35.596Z,100363.59
2022-11-25T10:36:13.134Z,100361.76
2022-11-25T10:38:45.576Z,100367.66
2022-11-25T10:41:18.126Z,100369.44
2022-11-25T10:43:49.060Z,100369.81
2022-11-25T10:46:43.413Z,100376.23
2022-11-25T10:49:18.383Z,100378.42
2022-11-25T10:51:50.138Z,100369.74
2022-11-25T10:54:28.341Z,100369.74
2022-11-25T10:57:01.188Z,100370.25
2022-11-25T10:59:39.999Z,100365.92
2022-11-25T11:02:28.068Z,100365.55
2022-11-25T11:05:12.930Z,100369.42
2022-11-25T11:07:45.605Z,100365.94
2022-11-25T11:10:21.451Z,100356.73
2022-11-25T11:13:00.423Z,100355.70
2022-11-25T11:15:35.787Z,100363.31
2022-11-25T11:18:30.688Z,100360.67
2022-11-25T11:21:01.557Z,100360.22
2022-11-25T11:23:31.504Z,100360.22
2022-11-25T11:26:08.511Z,100361.23
2022-11-25T11:28:42.861Z,100360.20
2022-11-25T11:31:40.623Z,100358.70
2022-11-25T11:34:37.175Z,100361.25
2022-11-25T11:37:46.951Z,100356.64
2022-11-25T11:40:25.578Z,100355.95
2022-11-25T11:43:23.884Z,100356.27
2022-11-25T11:46:02.588Z,100357.10
2022-11-25T11:48:53.646Z,100358.69
2022-11-25T11:51:41.301Z,100364.36
2022-11-25T11:54:23.417Z,100367.34
2022-11-25T11:57:04.829Z,100362.45
2022-11-25T11:59:57.015Z,100367.06
2022-11-25T12:02:35.683Z,100363.39
2022-11-25T12:05:09.517Z,100359.66
2022-11-25T12:07:54.398Z,100357.08
2022-11-25T12:10:27.123Z,100361.32
2022-11-25T12:13:18.268Z,100364.34
2022-11-25T12:15:51.128Z,100364.02
2022-11-25T12:18:46.657Z,100356.16
2022-11-25T12:21:41.446Z,100358.59
2022-11-25T12:24:22.065Z,100359.87
2022-11-25T12:27:20.520Z,100353.13
2022-11-25T12:30:08.463Z,100354.21
2022-11-25T12:32:57.974Z,100362.03
2022-11-25T12:35:30.814Z,100356.58
2022-11-25T12:38:06.670Z,100355.63
2022-11-25T12:40:45.167Z,100360.00
2022-11-25T12:43:43.578Z,100353.05
2022-11-25T12:46:19.895Z,100352.80
2022-11-25T12:48:50.389Z,100355.26
2022-11-25T12:51:41.276Z,100352.56
2022-11-25T12:54:47.277Z,100348.00
2022-11-25T12:57:41.949Z,100357.90
2022-11-25T13:00:43.391Z,100357.90
2022-11-25T13:03:24.956Z,100359.88
2022-11-25T13:06:26.618Z,100357.14
2022-11-25T13:09:13.385Z,100359.69
2022-11-25T13:11:54.733Z,100354.83
2022-11-25T13:14:50.832Z,100358.18
2022-11-25T13:17:21.396Z,100356.80
2022-11-25T13:19:51.088Z,100357.74
2022-11-25T13:22:29.659Z,100356.52
2022-11-25T13:25:00.008Z,100356.52
2022-11-25T13:27:36.001Z,100363.20
2022-11-25T13:30:08.393Z,100363.20
2022-11-25T13:32:40.635Z,100361.91
2022-11-25T13:35:34.383Z,100364.73
2022-11-25T13:38:09.424Z,100365.17
2022-11-25T13:40:40.476Z,100362.55
2022-11-25T13:43:22.085Z,100358.80
2022-11-25T13:45:52.208Z,100365.37
2022-11-25T13:48:25.137Z,100370.28
2022-11-25T13:51:14.337Z,100367.45
2022-11-25T13:53:56.064Z,100372.70
2022-11-25T13:56:29.349Z,100372.70
2022-11-25T13:59:20.356Z,100371.98
2022-11-25T14:01:53.319Z,100378.36
2022-11-25T14:04:41.282Z,100391.27
2022-11-25T14:07:19.797Z,100387.22
2022-11-25T14:10:05.404Z,100390.20
2022-11-25T14:12:59.197Z,100385.77
2022-11-25T14:15:34.819Z,100384.55
2022-11-25T14:18:10.435Z,100384.17
2022-11-25T14:20:48.990Z,100386.52
2022-11-25T14:23:41.301Z,100388.28
2022-11-25T14:26:41.681Z,100393.72
2022-11-25T14:28:57.134Z,100393.72
2022-11-25T14:31:30.008Z,100393.66
2022-11-25T14:34:02.650Z,100391.38
2022-11-25T14:36:38.583Z,100364.81
2022-11-25T14:39:11.828Z,100364.81
2022-11-25T14:41:44.887Z,100404.09
2022-11-25T14:44:21.532Z,100404.15
2022-11-25T14:46:54.388Z,100398.63
2022-11-25T14:49:46.589Z,100413.30
2022-11-25T14:51:55.937Z,100411.14
2022-11-25T14:54:25.735Z,100417.04
2022-11-25T14:56:55.570Z,100418.27
2022-11-25T14:59:26.992Z,100420.77
2022-11-25T15:01:57.034Z,100417.24
2022-11-25T15:04:27.268Z,100412.11
2022-11-25T15:07:02.284Z,100417.33
2022-11-25T15:09:35.914Z,100421.80
2022-11-25T15:12:10.252Z,100425.58
2022-11-25T15:14:43.291Z,100419.80
2022-11-25T15:17:30.685Z,100426.16
2022-11-25T15:20:06.041Z,100422.59
2022-11-25T15:22:36.071Z,100422.63
2022-11-25T15:25:11.995Z,100418.77
2022-11-25T15:27:47.401Z,100420.91
2022-11-25T15:30:22.595Z,100408.27
2022-11-25T15:32:53.341Z,100408.27
2022-11-25T15:35:25.941Z,100420.33
2022-11-25T15:37:56.085Z,100420.33
2022-11-25T15:40:42.626Z,100418.30
2022-11-25T15:43:30.234Z,100419.78
2022-11-25T15:46:07.146Z,100419.78
2022-11-25T15:48:44.374Z,100422.65
2022-11-25T15:51:37.953Z,100417.48
2022-11-25T15:54:25.971Z,100426.45
2022-11-25T15:56:58.933Z,100424.17
2022-11-25T15:59:41.451Z,100423.16
2022-11-25T16:02:46.055Z,100433.24
2022-11-25T16:05:21.478Z,100425.21
2022-11-25T16:07:54.931Z,100427.69
2022-11-25T16:10:36.506Z,100425.59
2022-11-25T16:13:25.683Z,100430.44
2022-11-25T16:16:04.621Z,100430.44
2022-11-25T16:18:43.627Z,100436.84
2022-11-25T16:21:29.567Z,100432.16
2022-11-25T16:24:02.436Z,100440.55
2022-11-25T16:26:36.055Z,100428.04
2022-11-25T16:29:18.900Z,100437.92
2022-11-25T16:31:48.929Z,100441.09
2022-11-25T16:34:21.158Z,100441.80
2022-11-25T16:36:51.336Z,100449.47
2022-11-25T16:39:21.124Z,100449.47
2022-11-25T16:41:56.422Z,100446.53
2022-11-25T16:44:27.963Z,100450.47
2022-11-25T16:46:59.483Z,100448.28
2022-11-25T16:49:31.876Z,100451.22
2022-11-25T16:52:01.720Z,100458.78
2022-11-25T16:54:31.690Z,100448.05
2022-11-25T16:57:02.098Z,100452.56
2022-11-25T16:59:35.069Z,100447.43
2022-11-25T17:02:07.476Z,100449.94
2022-11-25T17:04:37.365Z,100447.58
2022-11-25T17:09:47.122Z,100445.66
2022-11-25T17:12:22.713Z,100451.86
2022-11-25T17:14:52.771Z,100455.72
2022-11-25T17:17:25.973Z,100457.95
2022-11-25T17:19:56.317Z,100456.27
2022-11-25T17:22:27.657Z,100464.46
2022-11-25T17:24:58.627Z,100467.86
2022-11-25T17:27:32.260Z,100459.82
2022-11-25T17:30:04.327Z,100463.60
2022-11-25T17:32:35.242Z,100466.39
2022-11-25T17:35:05.396Z,100472.77
2022-11-25T17:37:35.170Z,100477.78
2022-11-25T17:40:07.137Z,100476.08
2022-11-25T17:42:37.402Z,100480.58
2022-11-25T17:45:19.372Z,100477.42
2022-11-25T17:47:49.512Z,100486.53
2022-11-25T17:50:26.957Z,100483.30
2022-11-25T17:52:56.771Z,100480.05
2022-11-25T17:55:27.240Z,100481.81
2022-11-25T17:57:57.490Z,100482.25
2022-11-25T18:00:27.445Z,100480.36
2022-11-25T18:02:57.347Z,100485.53
2022-11-25T18:05:28.465Z,100487.59
2022-11-25T18:07:58.245Z,100491.88
2022-11-25T18:10:28.842Z,100494.38
2022-11-25T18:12:58.783Z,100504.22
2022-11-25T18:15:32.232Z,100497.53
2022-11-25T18:18:08.560Z,100498.73
2022-11-25T18:20:38.357Z,100506.21
2022-11-25T18:23:09.642Z,100504.66
2022-11-25T18:25:41.722Z,100508.22
2022-11-25T18:28:14.318Z,100506.40
2022-11-25T18:30:44.205Z,100509.27
2022-11-25T18:33:14.851Z,100515.64
2022-11-25T18:35:46.571Z,100512.47
2022-11-25T18:38:15.359Z,100515.50
2022-11-25T18:40:50.373Z,100520.84
2022-11-25T18:43:26.015Z,100525.14
2022-11-25T18:45:57.167Z,100532.45
2022-11-25T18:48:28.436Z,100542.78
2022-11-25T18:50:58.550Z,100534.40
2022-11-25T18:53:28.567Z,100534.40
2022-11-25T18:55:58.466Z,100542.85
2022-11-25T18:58:28.994Z,100545.57
2022-11-25T19:01:07.607Z,100541.02
2022-11-25T19:03:37.776Z,100544.05
2022-11-25T19:06:09.367Z,100548.23
2022-11-25T19:08:40.140Z,100549.27
2022-11-25T19:11:16.819Z,100547.28
2022-11-25T19:13:50.066Z,100544.75
2022-11-25T19:16:22.253Z,100548.51
2022-11-25T19:18:52.054Z,100551.28
2022-11-25T19:21:22.324Z,100545.13
2022-11-25T19:23:52.054Z,100550.58
2022-11-25T19:26:27.845Z,100554.14
2022-11-25T19:29:00.691Z,100548.58
2022-11-25T19:31:33.683Z,100555.38
2022-11-25T19:34:04.105Z,100556.68
2022-11-25T19:36:35.000Z,100569.59
2022-11-25T19:39:06.707Z,100570.42
2022-11-25T19:41:36.838Z,100570.15
2022-11-25T19:44:06.647Z,100573.94
2022-11-25T19:47:07.014Z,100577.70
2022-11-25T19:49:08.251Z,100583.56
2022-11-25T19:51:38.401Z,100573.53
2022-11-25T19:54:17.534Z,100578.83
2022-11-25T19:56:47.382Z,100581.57
2022-11-25T19:59:17.027Z,100586.89
2022-11-25T20:01:47.557Z,100589.09
2022-11-25T20:04:22.853Z,100579.83
2022-11-25T20:06:53.865Z,100579.83
2022-11-25T20:09:23.714Z,100593.98
2022-11-25T20:11:55.155Z,100595.38
2022-11-25T20:14:24.936Z,100595.38
2022-11-25T20:16:54.822Z,100595.21
2022-11-25T20:19:24.364Z,100598.19
2022-11-25T20:21:54.142Z,100598.88
2022-11-25T20:24:23.646Z,100608.16
2022-11-25T20:26:53.494Z,100609.74
2022-11-25T20:29:30.080Z,100615.39
2022-11-25T20:31:56.912Z,100612.09
2022-11-25T20:34:28.231Z,100618.77
2022-11-25T20:36:58.020Z,100617.88
2022-11-25T20:39:27.818Z,100630.56
2022-11-25T20:41:57.628Z,100627.14
2022-11-25T20:44:28.490Z,100636.33
2022-11-25T20:46:57.421Z,100639.48
2022-11-25T20:49:29.170Z,100643.47
2022-11-25T20:51:59.628Z,100627.78
2022-11-25T20:54:31.428Z,100650.13
2022-11-25T20:57:01.843Z,100652.09
2022-11-25T20:59:31.404Z,100659.19
2022-11-25T21:02:01.449Z,100659.70
2022-11-25T21:04:31.785Z,100668.33
2022-11-25T21:07:01.588Z,100668.33
2022-11-25T21:09:36.537Z,100670.59
2022-11-25T21:12:13.427Z,100681.27
2022-11-25T21:14:41.496Z,100681.27
2022-11-25T21:17:11.023Z,100684.58
2022-11-25T21:19:40.818Z,100687.19
2022-11-25T21:22:15.094Z,100682.36
2022-11-25T21:24:45.236Z,100679.67
2022-11-25T21:27:19.917Z,100680.05
2022-11-25T21:29:49.881Z,100685.97
2022-11-25T21:32:25.429Z,100685.97
2022-11-25T21:34:56.734Z,100685.97
2022-11-25T21:37:32.307Z,100689.46
2022-11-25T21:40:02.588Z,100685.55
2022-11-25T21:42:33.594Z,100688.09
2022-11-25T21:45:03.553Z,100683.63
2022-11-25T21:47:33.743Z,100689.66
2022-11-25T21:50:03.587Z,100691.29
2022-11-25T21:52:33.613Z,100695.12
2022-11-25T21:55:03.385Z,100692.55
2022-11-25T21:57:34.208Z,100692.55
2022-11-25T22:00:05.113Z,100699.24
2022-11-25T22:02:34.788Z,100700.02
2022-11-25T22:05:06.720Z,100704.30
2022-11-25T22:07:36.588Z,100705.56
2022-11-25T22:10:10.669Z,100708.47
2022-11-25T22:12:43.178Z,100716.61
2022-11-25T22:15:18.773Z,100724.60
2022-11-25T22:17:50.667Z,100715.11
2022-11-25T22:20:34.189Z,100712.23
2022-11-25T22:23:05.874Z,100709.80
2022-11-25T22:25:35.716Z,100707.48
2022-11-25T22:28:06.463Z,100713.39
2022-11-25T22:30:36.763Z,100719.89
2022-11-25T22:33:06.927Z,100719.89
2022-11-25T22:35:36.756Z,100715.63
2022-11-25T22:38:14.927Z,100714.03
2022-11-25T22:40:47.680Z,100713.80
2022-11-25T22:43:19.924Z,100719.13
2022-11-25T22:45:50.548Z,100723.75
2022-11-25T22:48:23.826Z,100723.00
2022-11-25T22:50:53.754Z,100731.38
2022-11-25T22:53:24.921Z,100731.38
2022-11-25T22:55:58.679Z,100738.08
2022-11-25T22:58:29.766Z,100742.43
2022-11-25T23:00:59.815Z,100748.27
2022-11-25T23:03:30.872Z,100744.36
2022-11-25T23:06:02.492Z,100747.97
2022-11-25T23:08:32.451Z,100749.75
2022-11-25T23:11:02.346Z,100751.20
2022-11-25T23:13:32.186Z,100750.52
2022-11-25T23:16:05.063Z,100747.23
2022-11-25T23:18:40.674Z,100752.30
2022-11-25T23:21:19.272Z,100751.89
2022-11-25T23:23:49.163Z,100754.42
2022-11-25T23:26:18.822Z,100756.85
2022-11-25T23:28:49.740Z,100755.52
2022-11-25T23:31:19.937Z,100758.01
2022-11-25T23:33:51.708Z,100761.55
2022-11-25T23:36:30.440Z,100763.71
2022-11-25T23:39:03.759Z,100763.71
2022-11-25T23:41:35.353Z,100770.59
2022-11-25T23:44:15.246Z,100767.39
2022-11-25T23:46:45.889Z,100763.41
2022-11-25T23:49:30.709Z,100766.86
2022-11-25T23:52:07.806Z,100761.20
2022-11-25T23:54:40.083Z,100761.85
2022-11-25T23:57:19.146Z,100766.09
2022-11-25T23:59:49.907Z,100766.41
